createdAt,value
2022-10-14T00:01:20.539Z,11.11
2022-10-14T00:04:06.360Z,11.10
2022-10-14T00:06:51.619Z,11.10
2022-10-14T00:09:36.857Z,11.09
2022-10-14T00:12:23.726Z,11.04
2022-10-14T00:15:09.272Z,11.02
2022-10-14T00:17:54.282Z,11.03
2022-10-14T00:20:39.739Z,11.04
2022-10-14T00:23:25.260Z,11.01
2022-10-14T00:26:20.568Z,11.00
2022-10-14T00:29:11.151Z,10.98
2022-10-14T00:31:56.327Z,10.98
2022-10-14T00:34:41.795Z,10.98
2022-10-14T00:37:28.275Z,10.95
2022-10-14T00:40:13.549Z,10.91
2022-10-14T00:42:58.869Z,10.88
2022-10-14T00:45:44.300Z,10.86
2022-10-14T00:48:29.675Z,10.87
2022-10-14T00:51:18.399Z,10.87
2022-10-14T00:54:05.281Z,10.82
2022-10-14T00:56:51.509Z,10.79
2022-10-14T00:59:38.402Z,10.78
2022-10-14T01:02:24.112Z,10.79
2022-10-14T01:05:12.195Z,10.79
2022-10-14T01:08:03.610Z,10.77
2022-10-14T01:11:05.652Z,10.75
2022-10-14T01:14:21.424Z,10.69
2022-10-14T01:17:12.905Z,10.69
2022-10-14T01:20:22.862Z,10.68
2022-10-14T01:23:30.072Z,10.67
2022-10-14T01:26:36.162Z,10.65
2022-10-14T01:29:46.146Z,10.65
2022-10-14T01:32:48.003Z,10.63
2022-10-14T01:35:43.406Z,10.60
2022-10-14T01:38:44.870Z,10.59
2022-10-14T01:41:36.715Z,10.58
2022-10-14T01:44:25.092Z,10.57
2022-10-14T01:47:13.473Z,10.56
2022-10-14T01:50:09.658Z,10.54
2022-10-14T01:53:01.610Z,10.53
2022-10-14T01:55:49.198Z,10.54
2022-10-14T01:58:37.672Z,10.52
2022-10-14T02:01:24.837Z,10.51
2022-10-14T02:04:19.397Z,10.47
2022-10-14T02:07:23.373Z,10.49
2022-10-14T02:10:22.519Z,10.47
2022-10-14T02:13:24.133Z,10.48
2022-10-14T02:16:23.312Z,10.47
2022-10-14T02:19:14.440Z,10.44
2022-10-14T02:22:31.323Z,10.39
2022-10-14T02:25:37.025Z,10.34
2022-10-14T02:28:27.119Z,10.36
2022-10-14T02:31:18.158Z,10.37
2022-10-14T02:34:10.453Z,10.39
2022-10-14T02:36:56.462Z,10.41
2022-10-14T02:39:49.267Z,10.41
2022-10-14T02:42:34.890Z,10.40
2022-10-14T02:45:26.122Z,10.43
2022-10-14T02:48:12.727Z,10.47
2022-10-14T02:50:57.919Z,10.50
2022-10-14T02:53:43.222Z,10.53
2022-10-14T02:56:29.107Z,10.58
2022-10-14T02:59:14.254Z,10.60
2022-10-14T03:02:00.339Z,10.63
2022-10-14T03:04:46.778Z,10.67
2022-10-14T03:07:32.347Z,10.69
2022-10-14T03:10:21.619Z,10.70
2022-10-14T03:13:07.315Z,10.71
2022-10-14T03:15:59.083Z,10.73
2022-10-14T03:18:45.103Z,10.76
2022-10-14T03:21:42.880Z,10.79
2022-10-14T03:24:34.414Z,10.85
2022-10-14T03:27:40.986Z,10.85
2022-10-14T03:30:30.111Z,10.88
2022-10-14T03:33:24.506Z,10.86
2022-10-14T03:36:17.608Z,10.81
2022-10-14T03:39:05.801Z,10.72
2022-10-14T03:42:10.976Z,10.62
2022-10-14T03:45:01.700Z,10.54
2022-10-14T03:47:49.237Z,10.50
2022-10-14T03:50:34.834Z,10.51
2022-10-14T03:53:20.258Z,10.48
2022-10-14T03:56:06.586Z,10.46
2022-10-14T03:58:53.952Z,10.40
2022-10-14T04:01:40.636Z,10.36
2022-10-14T04:04:36.530Z,10.31
2022-10-14T04:07:23.093Z,10.29
2022-10-14T04:10:14.226Z,10.27
2022-10-14T04:13:04.971Z,10.26
2022-10-14T04:15:55.339Z,10.23
2022-10-14T04:18:53.961Z,10.20
2022-10-14T04:21:41.026Z,10.19
2022-10-14T04:24:27.762Z,10.20
2022-10-14T04:27:17.916Z,10.21
2022-10-14T04:30:08.102Z,10.21
2022-10-14T04:33:04.856Z,10.23
2022-10-14T04:35:51.588Z,10.24
2022-10-14T04:38:45.029Z,10.24
2022-10-14T04:41:30.795Z,10.28
2022-10-14T04:44:19.442Z,10.31
2022-10-14T04:47:08.824Z,10.34
2022-10-14T04:49:55.957Z,10.41
2022-10-14T04:52:41.742Z,10.44
2022-10-14T04:55:30.900Z,10.46
2022-10-14T04:58:16.969Z,10.48
2022-10-14T05:01:05.074Z,10.50
2022-10-14T05:03:55.359Z,10.50
2022-10-14T05:06:40.867Z,10.51
2022-10-14T05:09:28.608Z,10.50
2022-10-14T05:12:14.635Z,10.53
2022-10-14T05:15:07.254Z,10.54
2022-10-14T05:17:59.449Z,10.54
2022-10-14T05:20:59.495Z,10.56
2022-10-14T05:23:54.115Z,10.59
2022-10-14T05:26:39.294Z,10.62
2022-10-14T05:29:28.434Z,10.61
2022-10-14T05:32:15.771Z,10.64
2022-10-14T05:35:04.966Z,10.67
2022-10-14T05:38:00.654Z,10.68
2022-10-14T05:40:54.502Z,10.70
2022-10-14T05:43:40.302Z,10.72
2022-10-14T05:46:25.297Z,10.73
2022-10-14T05:49:14.252Z,10.79
2022-10-14T05:52:00.467Z,10.86
2022-10-14T05:54:45.841Z,10.93
2022-10-14T05:57:35.514Z,10.96
2022-10-14T06:00:25.632Z,10.98
2022-10-14T06:03:18.979Z,11.02
2022-10-14T06:06:04.483Z,11.06
2022-10-14T06:08:49.731Z,11.08
2022-10-14T06:11:35.268Z,11.07
2022-10-14T06:14:20.586Z,11.09
2022-10-14T06:17:06.880Z,11.13
2022-10-14T06:19:52.253Z,11.16
2022-10-14T06:22:37.712Z,11.20
2022-10-14T06:25:22.906Z,11.24
2022-10-14T06:28:08.757Z,11.27
2022-10-14T06:30:55.022Z,11.29
2022-10-14T06:33:40.210Z,11.31
2022-10-14T06:36:25.382Z,11.33
2022-10-14T06:39:11.007Z,11.35
2022-10-14T06:41:56.184Z,11.38
2022-10-14T06:44:41.925Z,11.41
2022-10-14T06:47:27.871Z,11.43
2022-10-14T06:50:13.170Z,11.48
2022-10-14T06:52:58.590Z,11.54
2022-10-14T06:55:44.374Z,11.58
2022-10-14T06:58:30.898Z,11.63
2022-10-14T07:01:16.168Z,11.68
2022-10-14T07:04:01.786Z,11.75
2022-10-14T07:06:49.955Z,11.80
2022-10-14T07:09:35.115Z,11.80
2022-10-14T07:12:20.664Z,11.85
2022-10-14T07:15:06.708Z,11.89
2022-10-14T07:17:51.917Z,11.90
2022-10-14T07:20:37.266Z,11.89
2022-10-14T07:23:22.722Z,11.90
2022-10-14T07:26:08.083Z,11.95
2022-10-14T07:28:53.448Z,11.98
2022-10-14T07:31:38.573Z,12.03
2022-10-14T07:34:23.617Z,12.05
2022-10-14T07:37:09.080Z,12.06
2022-10-14T07:39:54.586Z,12.11
2022-10-14T07:42:40.238Z,12.16
2022-10-14T07:45:25.754Z,12.22
2022-10-14T07:48:10.991Z,12.28
2022-10-14T07:50:56.555Z,12.38
2022-10-14T07:53:41.725Z,12.44
2022-10-14T07:56:27.634Z,12.52
2022-10-14T07:59:13.125Z,12.60
2022-10-14T08:01:59.140Z,12.70
2022-10-14T08:04:44.922Z,12.76
2022-10-14T08:07:30.990Z,12.80
2022-10-14T08:10:16.222Z,12.80
2022-10-14T08:13:01.422Z,12.80
2022-10-14T08:15:46.617Z,12.80
2022-10-14T08:18:31.997Z,12.81
2022-10-14T08:21:19.697Z,12.89
2022-10-14T08:24:17.340Z,13.14
2022-10-14T08:27:02.896Z,13.51
2022-10-14T08:29:48.214Z,13.96
2022-10-14T08:32:33.353Z,14.26
2022-10-14T08:35:19.237Z,14.73
2022-10-14T08:38:04.466Z,15.02
2022-10-14T08:41:02.907Z,15.44
2022-10-14T08:44:13.309Z,15.91
2022-10-14T08:47:04.523Z,16.26
2022-10-14T08:49:58.509Z,16.31
2022-10-14T08:52:52.791Z,16.09
2022-10-14T08:55:46.574Z,15.98
2022-10-14T08:58:40.194Z,15.97
2022-10-14T09:01:31.823Z,16.02
2022-10-14T09:04:17.632Z,16.16
2022-10-14T09:07:04.036Z,16.25
2022-10-14T09:10:07.987Z,16.32
2022-10-14T09:12:56.694Z,16.30
2022-10-14T09:15:45.949Z,16.36
2022-10-14T09:18:53.864Z,16.22
2022-10-14T09:21:52.654Z,16.21
2022-10-14T09:24:38.766Z,16.42
2022-10-14T09:27:24.622Z,16.55
2022-10-14T09:30:15.869Z,16.53
2022-10-14T09:33:17.527Z,16.42
2022-10-14T09:36:09.243Z,16.30
2022-10-14T09:38:59.156Z,16.23
2022-10-14T09:41:52.427Z,16.24
2022-10-14T09:44:37.672Z,16.23
2022-10-14T09:47:29.687Z,16.15
2022-10-14T09:50:34.858Z,16.25
2022-10-14T09:53:38.608Z,16.11
2022-10-14T09:56:42.414Z,16.06
2022-10-14T09:59:28.448Z,16.03
2022-10-14T10:02:23.215Z,16.07
2022-10-14T10:05:25.342Z,16.16
2022-10-14T10:08:14.013Z,16.12
2022-10-14T10:11:10.310Z,16.13
2022-10-14T10:13:56.523Z,16.12
2022-10-14T10:16:41.557Z,16.14
2022-10-14T10:19:31.973Z,16.22
2022-10-14T10:22:31.522Z,16.33
2022-10-14T10:25:21.224Z,16.36
2022-10-14T10:28:15.858Z,16.41
2022-10-14T10:31:19.476Z,16.40
2022-10-14T10:34:21.876Z,16.43
2022-10-14T10:37:46.471Z,16.54
2022-10-14T10:40:44.092Z,16.60
2022-10-14T10:43:49.215Z,16.58
2022-10-14T10:46:51.746Z,16.56
2022-10-14T10:58:43.172Z,16.87
2022-10-14T11:02:10.400Z,16.91
2022-10-14T11:05:25.014Z,16.96
2022-10-14T11:12:22.887Z,16.96
2022-10-14T11:15:27.547Z,17.00
2022-10-14T11:18:47.493Z,17.07
2022-10-14T11:22:04.617Z,17.01
2022-10-14T11:25:00.138Z,17.12
2022-10-14T11:27:45.447Z,17.52
2022-10-14T11:30:45.064Z,17.81
2022-10-14T11:33:50.495Z,18.06
2022-10-14T11:37:03.303Z,18.05
2022-10-14T11:39:59.257Z,17.94
2022-10-14T11:43:13.576Z,17.65
2022-10-14T11:46:09.913Z,17.48
2022-10-14T11:49:03.828Z,17.36
2022-10-14T11:51:58.187Z,17.35
2022-10-14T11:55:13.748Z,17.42
2022-10-14T11:58:10.242Z,17.42
2022-10-14T12:01:18.040Z,17.41
2022-10-14T12:04:10.678Z,17.49
2022-10-14T12:07:18.905Z,17.69
2022-10-14T12:10:19.662Z,17.76
2022-10-14T12:13:13.658Z,17.76
2022-10-14T12:16:01.107Z,17.60
2022-10-14T12:18:53.678Z,17.41
2022-10-14T12:22:15.954Z,17.33
2022-10-14T12:25:17.275Z,17.28
2022-10-14T12:28:03.623Z,17.28
2022-10-14T12:30:48.898Z,17.27
2022-10-14T12:34:15.326Z,17.18
2022-10-14T12:37:27.160Z,17.07
2022-10-14T12:40:25.308Z,16.98
2022-10-14T12:43:31.837Z,16.95
2022-10-14T12:46:17.317Z,17.01
2022-10-14T12:49:02.900Z,17.07
2022-10-14T12:51:56.474Z,17.12
2022-10-14T12:54:48.105Z,17.19
2022-10-14T12:57:38.706Z,17.42
2022-10-14T13:00:26.848Z,17.64
2022-10-14T13:03:20.546Z,17.76
2022-10-14T13:06:42.213Z,17.77
2022-10-14T13:09:34.801Z,17.76
2022-10-14T13:12:22.686Z,17.80
2022-10-14T13:15:45.482Z,17.78
2022-10-14T13:18:31.553Z,17.65
2022-10-14T13:21:34.818Z,17.62
2022-10-14T13:24:27.597Z,17.68
2022-10-14T13:27:37.024Z,17.54
2022-10-14T13:30:46.188Z,17.46
2022-10-14T13:33:40.450Z,17.43
2022-10-14T13:36:51.939Z,17.49
2022-10-14T13:39:38.093Z,17.52
2022-10-14T13:42:31.944Z,17.53
2022-10-14T13:45:20.643Z,17.54
2022-10-14T13:48:05.981Z,17.53
2022-10-14T13:50:58.695Z,17.53
2022-10-14T13:54:00.499Z,17.54
2022-10-14T13:57:38.291Z,17.54
2022-10-14T14:00:43.894Z,17.52
2022-10-14T14:03:38.663Z,17.52
2022-10-14T14:06:27.774Z,17.50
2022-10-14T14:09:27.342Z,17.45
2022-10-14T14:12:13.473Z,17.40
2022-10-14T14:15:00.419Z,17.34
2022-10-14T14:17:45.559Z,17.28
2022-10-14T14:20:33.890Z,17.24
2022-10-14T14:23:19.247Z,17.19
2022-10-14T14:26:18.987Z,17.16
2022-10-14T14:29:06.709Z,17.17
2022-10-14T14:32:08.602Z,17.21
2022-10-14T14:34:54.947Z,17.17
2022-10-14T14:37:55.122Z,17.15
2022-10-14T14:40:41.046Z,17.16
2022-10-14T14:43:31.308Z,17.17
2022-10-14T14:46:28.190Z,17.23
2022-10-14T14:49:25.776Z,17.30
2022-10-14T14:52:13.887Z,17.29
2022-10-14T14:54:59.362Z,17.27
2022-10-14T14:57:44.719Z,17.16
2022-10-14T15:00:32.880Z,17.02
2022-10-14T15:03:18.507Z,16.88
2022-10-14T15:06:05.585Z,16.74
2022-10-14T15:08:53.337Z,16.62
2022-10-14T15:12:00.635Z,16.51
2022-10-14T15:14:59.408Z,16.44
2022-10-14T15:17:45.970Z,16.35
2022-10-14T15:20:38.464Z,16.26
2022-10-14T15:24:00.154Z,16.18
2022-10-14T15:26:46.223Z,16.14
2022-10-14T15:29:31.414Z,16.09
2022-10-14T15:32:17.611Z,16.07
2022-10-14T15:35:03.085Z,16.05
2022-10-14T15:37:49.307Z,16.05
2022-10-14T15:40:34.965Z,16.01
2022-10-14T15:43:23.006Z,15.97
2022-10-14T15:46:31.738Z,15.92
2022-10-14T15:49:32.240Z,15.89
2022-10-14T15:52:19.458Z,15.86
2022-10-14T15:55:21.892Z,15.80
2022-10-14T15:58:07.520Z,15.73
2022-10-14T16:00:56.464Z,15.71
2022-10-14T16:03:41.969Z,15.67
2022-10-14T16:06:30.917Z,15.64
2022-10-14T16:09:16.201Z,15.57
2022-10-14T16:12:02.785Z,15.50
2022-10-14T16:14:47.947Z,15.45
2022-10-14T16:17:33.360Z,15.40
2022-10-14T16:20:18.944Z,15.36
2022-10-14T16:23:05.324Z,15.32
2022-10-14T16:25:51.377Z,15.28
2022-10-14T16:28:36.606Z,15.26
2022-10-14T16:31:21.954Z,15.23
2022-10-14T16:34:11.671Z,15.20
2022-10-14T16:36:57.227Z,15.17
2022-10-14T16:39:42.424Z,15.15
2022-10-14T16:42:28.604Z,15.14
2022-10-14T16:45:14.113Z,15.12
2022-10-14T16:47:59.684Z,15.13
2022-10-14T16:50:52.935Z,15.18
2022-10-14T16:53:41.400Z,15.15
2022-10-14T16:56:45.529Z,15.14
2022-10-14T16:59:31.246Z,15.13
2022-10-14T17:02:17.837Z,15.10
2022-10-14T17:05:03.266Z,15.07
2022-10-14T17:07:48.498Z,15.03
2022-10-14T17:10:33.807Z,15.01
2022-10-14T17:13:19.099Z,14.99
2022-10-14T17:16:06.214Z,14.99
2022-10-14T17:18:52.009Z,15.02
2022-10-14T17:21:38.146Z,15.05
2022-10-14T17:24:26.002Z,15.05
2022-10-14T17:27:11.733Z,15.07
2022-10-14T17:29:57.154Z,15.08
2022-10-14T17:32:42.391Z,15.09
2022-10-14T17:35:27.879Z,15.04
2022-10-14T17:38:14.459Z,15.01
2022-10-14T17:41:08.495Z,15.00
2022-10-14T17:43:55.851Z,14.97
2022-10-14T17:46:41.115Z,14.93
2022-10-14T17:49:26.587Z,14.90
2022-10-14T17:52:12.045Z,14.87
2022-10-14T17:54:58.994Z,14.84
2022-10-14T17:57:47.682Z,14.80
2022-10-14T18:00:32.915Z,14.79
2022-10-14T18:03:18.544Z,14.75
2022-10-14T18:06:26.902Z,14.73
2022-10-14T18:09:12.457Z,14.72
2022-10-14T18:12:13.442Z,14.71
2022-10-14T18:14:58.916Z,14.68
2022-10-14T18:17:44.615Z,14.64
2022-10-14T18:20:29.527Z,14.59
2022-10-14T18:23:14.857Z,14.55
2022-10-14T18:26:06.296Z,14.52
2022-10-14T18:28:55.730Z,14.50
2022-10-14T18:32:08.511Z,14.45
2022-10-14T18:34:53.817Z,14.42
2022-10-14T18:37:39.139Z,14.39
2022-10-14T18:40:24.654Z,14.35
2022-10-14T18:43:09.761Z,14.31
2022-10-14T18:46:06.017Z,14.27
2022-10-14T18:48:53.306Z,14.22
2022-10-14T18:51:41.012Z,14.19
2022-10-14T18:54:26.084Z,14.16
2022-10-14T18:57:14.852Z,14.14
2022-10-14T19:00:00.139Z,14.11
2022-10-14T19:02:45.696Z,14.08
2022-10-14T19:05:35.809Z,14.05
2022-10-14T19:08:23.554Z,13.99
2022-10-14T19:11:19.725Z,13.99
2022-10-14T19:14:05.707Z,14.01
2022-10-14T19:16:51.624Z,14.01
2022-10-14T19:19:36.951Z,14.01
2022-10-14T19:22:25.001Z,14.03
2022-10-14T19:25:10.651Z,14.04
2022-10-14T19:27:55.870Z,14.07
2022-10-14T19:30:41.216Z,14.06
2022-10-14T19:33:26.365Z,14.06
2022-10-14T19:36:14.045Z,14.05
2022-10-14T19:39:00.340Z,14.03
2022-10-14T19:41:47.312Z,14.02
2022-10-14T19:47:23.231Z,14.00
2022-10-14T19:50:09.217Z,13.98
2022-10-14T19:52:54.662Z,13.98
2022-10-14T19:55:40.810Z,14.00
2022-10-14T19:58:26.387Z,14.00
2022-10-14T20:01:17.006Z,14.00
2022-10-14T20:04:02.972Z,14.00
2022-10-14T20:06:48.323Z,13.97
2022-10-14T20:09:34.581Z,13.98
2022-10-14T20:12:20.795Z,13.98
2022-10-14T20:15:07.580Z,13.97
